sensor_id;sensor_type;location;lat;lon;timestamp;pressure;altitude;pressure_sealevel;temperature;humidity
16194;BME280;8204;53.582;10.080;2022-08-19T00:00:29;100772.06;;;22.69;100.00
16194;BME280;8204;53.582;10.080;2022-08-19T00:02:56;100770.44;;;22.68;100.00
16194;BME280;8204;53.582;10.080;2022-08-19T00:05:23;100746.25;;;22.63;100.00
16194;BME280;8204;53.582;10.080;2022-08-19T00:07:51;100754.53;;;22.61;100.00
16194;BME280;8204;53.582;10.080;2022-08-19T00:10:19;100744.00;;;22.55;100.00
16194;BME280;8204;53.582;10.080;2022-08-19T00:12:46;100738.41;;;22.56;100.00
16194;BME280;8204;53.582;10.080;2022-08-19T00:15:15;100735.97;;;22.55;100.00
16194;BME280;8204;53.582;10.080;2022-08-19T00:17:43;100731.69;;;22.54;100.00
16194;BME280;8204;53.582;10.080;2022-08-19T00:20:12;100737.03;;;22.54;100.00
16194;BME280;8204;53.582;10.080;2022-08-19T00:22:39;100735.38;;;22.53;100.00
16194;BME280;8204;53.582;10.080;2022-08-19T00:25:08;100745.38;;;22.46;100.00
16194;BME280;8204;53.582;10.080;2022-08-19T00:27:34;100721.16;;;22.36;100.00
16194;BME280;8204;53.582;10.080;2022-08-19T00:30:02;100726.16;;;22.32;100.00
16194;BME280;8204;53.582;10.080;2022-08-19T00:32:30;100715.47;;;22.32;100.00
16194;BME280;8204;53.582;10.080;2022-08-19T00:34:56;100706.25;;;22.28;100.00
16194;BME280;8204;53.582;10.080;2022-08-19T00:37:23;100697.44;;;22.28;100.00
16194;BME280;8204;53.582;10.080;2022-08-19T00:39:51;100685.94;;;22.27;100.00
16194;BME280;8204;53.582;10.080;2022-08-19T00:42:20;100677.59;;;22.24;100.00
16194;BME280;8204;53.582;10.080;2022-08-19T00:44:47;100672.41;;;22.29;100.00
16194;BME280;8204;53.582;10.080;2022-08-19T00:47:14;100682.47;;;22.27;100.00
16194;BME280;8204;53.582;10.080;2022-08-19T00:49:43;100670.41;;;22.24;100.00
16194;BME280;8204;53.582;10.080;2022-08-19T00:52:20;100655.09;;;22.20;100.00
16194;BME280;8204;53.582;10.080;2022-08-19T00:54:48;100648.00;;;22.25;100.00
16194;BME280;8204;53.582;10.080;2022-08-19T00:57:17;100653.00;;;22.22;100.00
16194;BME280;8204;53.582;10.080;2022-08-19T00:59:48;100643.94;;;22.23;100.00
16194;BME280;8204;53.582;10.080;2022-08-19T01:02:18;100649.28;;;22.23;100.00
16194;BME280;8204;53.582;10.080;2022-08-19T01:04:44;100649.75;;;22.20;100.00
16194;BME280;8204;53.582;10.080;2022-08-19T01:07:11;100653.78;;;22.22;100.00
16194;BME280;8204;53.582;10.080;2022-08-19T01:09:38;100659.13;;;22.22;100.00
16194;BME280;8204;53.582;10.080;2022-08-19T01:12:05;100649.66;;;22.15;100.00
16194;BME280;8204;53.582;10.080;2022-08-19T01:14:32;100639.31;;;22.07;100.00
16194;BME280;8204;53.582;10.080;2022-08-19T01:17:01;100635.63;;;22.08;100.00
16194;BME280;8204;53.582;10.080;2022-08-19T01:19:36;100631.41;;;22.12;100.00
16194;BME280;8204;53.582;10.080;2022-08-19T01:22:07;100634.56;;;22.09;100.00
16194;BME280;8204;53.582;10.080;2022-08-19T01:24:36;100621.00;;;21.99;100.00
16194;BME280;8204;53.582;10.080;2022-08-19T01:27:04;100621.50;;;21.96;100.00
16194;BME280;8204;53.582;10.080;2022-08-19T01:29:31;100625.09;;;21.90;100.00
16194;BME280;8204;53.582;10.080;2022-08-19T01:31:58;100615.47;;;21.89;100.00
16194;BME280;8204;53.582;10.080;2022-08-19T01:34:25;100602.13;;;21.78;100.00
16194;BME280;8204;53.582;10.080;2022-08-19T01:36:51;100596.44;;;21.74;100.00
16194;BME280;8204;53.582;10.080;2022-08-19T01:39:22;100583.34;;;21.73;100.00
16194;BME280;8204;53.582;10.080;2022-08-19T01:41:50;100585.31;;;21.77;100.00
16194;BME280;8204;53.582;10.080;2022-08-19T01:44:19;100572.78;;;21.78;100.00
16194;BME280;8204;53.582;10.080;2022-08-19T01:46:50;100560.84;;;21.69;100.00
16194;BME280;8204;53.582;10.080;2022-08-19T01:49:18;100544.75;;;21.64;100.00
16194;BME280;8204;53.582;10.080;2022-08-19T01:51:45;100514.59;;;21.63;100.00
16194;BME280;8204;53.582;10.080;2022-08-19T01:54:14;100509.81;;;21.65;100.00
16194;BME280;8204;53.582;10.080;2022-08-19T01:56:41;100523.38;;;21.75;100.00
16194;BME280;8204;53.582;10.080;2022-08-19T01:59:12;100526.28;;;21.74;100.00
16194;BME280;8204;53.582;10.080;2022-08-19T02:01:39;100532.78;;;21.78;100.00
16194;BME280;8204;53.582;10.080;2022-08-19T02:04:06;100542.06;;;21.75;100.00
16194;BME280;8204;53.582;10.080;2022-08-19T02:06:33;100520.84;;;21.69;100.00
16194;BME280;8204;53.582;10.080;2022-08-19T02:08:59;100513.31;;;21.66;100.00
16194;BME280;8204;53.582;10.080;2022-08-19T02:11:29;100503.22;;;21.68;100.00
16194;BME280;8204;53.582;10.080;2022-08-19T02:13:57;100506.22;;;21.71;100.00
16194;BME280;8204;53.582;10.080;2022-08-19T02:16:25;100491.03;;;21.72;100.00
16194;BME280;8204;53.582;10.080;2022-08-19T02:18:51;100480.94;;;21.74;100.00
16194;BME280;8204;53.582;10.080;2022-08-19T02:21:19;100466.06;;;21.78;100.00
16194;BME280;8204;53.582;10.080;2022-08-19T02:23:46;100464.00;;;21.80;100.00
16194;BME280;8204;53.582;10.080;2022-08-19T02:26:13;100468.28;;;21.81;100.00
16194;BME280;8204;53.582;10.080;2022-08-19T02:28:40;100469.41;;;21.85;100.00
16194;BME280;8204;53.582;10.080;2022-08-19T02:31:09;100466.41;;;21.81;100.00
16194;BME280;8204;53.582;10.080;2022-08-19T02:33:37;100476.75;;;21.78;100.00
16194;BME280;8204;53.582;10.080;2022-08-19T02:36:04;100468.31;;;21.69;100.00
16194;BME280;8204;53.582;10.080;2022-08-19T02:38:31;100459.03;;;21.72;100.00
16194;BME280;8204;53.582;10.080;2022-08-19T02:40:59;100456.13;;;21.73;100.00
16194;BME280;8204;53.582;10.080;2022-08-19T02:43:28;100438.97;;;21.69;100.00
16194;BME280;8204;53.582;10.080;2022-08-19T02:45:55;100447.06;;;21.74;100.00
16194;BME280;8204;53.582;10.080;2022-08-19T02:48:23;100425.06;;;21.67;100.00
16194;BME280;8204;53.582;10.080;2022-08-19T02:50:52;100405.47;;;21.62;100.00
16194;BME280;8204;53.582;10.080;2022-08-19T02:53:20;100398.28;;;21.62;100.00
16194;BME280;8204;53.582;10.080;2022-08-19T02:55:48;100397.91;;;21.70;100.00
16194;BME280;8204;53.582;10.080;2022-08-19T02:58:15;100404.84;;;21.71;100.00
16194;BME280;8204;53.582;10.080;2022-08-19T03:00:43;100401.72;;;21.74;100.00
16194;BME280;8204;53.582;10.080;2022-08-19T03:03:10;100368.00;;;21.68;100.00
16194;BME280;8204;53.582;10.080;2022-08-19T03:05:37;100370.66;;;21.68;100.00
16194;BME280;8204;53.582;10.080;2022-08-19T03:08:05;100364.66;;;21.61;100.00
16194;BME280;8204;53.582;10.080;2022-08-19T03:10:31;100335.47;;;21.55;100.00
16194;BME280;8204;53.582;10.080;2022-08-19T03:12:58;100314.13;;;21.55;100.00
16194;BME280;8204;53.582;10.080;2022-08-19T03:15:25;100314.47;;;21.58;100.00
16194;BME280;8204;53.582;10.080;2022-08-19T03:17:51;100308.34;;;21.58;100.00
16194;BME280;8204;53.582;10.080;2022-08-19T03:20:18;100293.25;;;21.52;100.00
16194;BME280;8204;53.582;10.080;2022-08-19T03:22:44;100264.66;;;21.47;100.00
16194;BME280;8204;53.582;10.080;2022-08-19T03:25:12;100248.06;;;21.45;100.00
16194;BME280;8204;53.582;10.080;2022-08-19T03:27:39;100226.53;;;21.47;100.00
16194;BME280;8204;53.582;10.080;2022-08-19T03:30:06;100213.31;;;21.40;100.00
16194;BME280;8204;53.582;10.080;2022-08-19T03:32:33;100181.72;;;21.32;100.00
16194;BME280;8204;53.582;10.080;2022-08-19T03:34:59;100129.72;;;21.30;100.00
16194;BME280;8204;53.582;10.080;2022-08-19T03:37:26;100090.78;;;21.29;100.00
16194;BME280;8204;53.582;10.080;2022-08-19T03:39:53;100049.44;;;21.27;100.00
16194;BME280;8204;53.582;10.080;2022-08-19T03:42:21;100030.31;;;21.29;100.00
16194;BME280;8204;53.582;10.080;2022-08-19T03:44:47;100012.44;;;21.30;100.00
16194;BME280;8204;53.582;10.080;2022-08-19T03:47:14;100043.63;;;21.29;100.00
16194;BME280;8204;53.582;10.080;2022-08-19T03:49:42;100031.34;;;21.28;100.00
16194;BME280;8204;53.582;10.080;2022-08-19T03:52:08;100040.22;;;21.34;100.00
16194;BME280;8204;53.582;10.080;2022-08-19T03:54:36;100041.84;;;21.35;100.00
16194;BME280;8204;53.582;10.080;2022-08-19T03:57:03;100071.50;;;21.38;100.00
16194;BME280;8204;53.582;10.080;2022-08-19T03:59:33;100058.97;;;21.39;100.00
16194;BME280;8204;53.582;10.080;2022-08-19T04:02:03;100065.19;;;21.44;100.00
16194;BME280;8204;53.582;10.080;2022-08-19T04:04:33;100098.22;;;21.43;100.00
16194;BME280;8204;53.582;10.080;2022-08-19T04:07:00;100062.69;;;21.38;100.00
16194;BME280;8204;53.582;10.080;2022-08-19T04:09:26;100038.38;;;21.34;100.00
16194;BME280;8204;53.582;10.080;2022-08-19T04:11:55;100048.03;;;21.40;100.00
16194;BME280;8204;53.582;10.080;2022-08-19T04:14:24;100076.38;;;21.46;100.00
16194;BME280;8204;53.582;10.080;2022-08-19T04:16:52;100082.38;;;21.53;100.00
16194;BME280;8204;53.582;10.080;2022-08-19T04:19:19;100112.41;;;21.49;100.00
16194;BME280;8204;53.582;10.080;2022-08-19T04:21:49;100130.13;;;21.55;100.00
16194;BME280;8204;53.582;10.080;2022-08-19T04:24:16;100149.94;;;21.59;100.00
16194;BME280;8204;53.582;10.080;2022-08-19T04:26:44;100155.59;;;21.62;100.00
16194;BME280;8204;53.582;10.080;2022-08-19T04:29:12;100169.34;;;21.54;100.00
16194;BME280;8204;53.582;10.080;2022-08-19T04:31:40;100153.56;;;21.53;100.00
16194;BME280;8204;53.582;10.080;2022-08-19T04:34:11;100156.00;;;21.54;100.00
16194;BME280;8204;53.582;10.080;2022-08-19T04:36:40;100131.34;;;21.47;100.00
16194;BME280;8204;53.582;10.080;2022-08-19T04:39:09;100143.63;;;21.48;100.00
16194;BME280;8204;53.582;10.080;2022-08-19T04:41:36;100102.91;;;21.36;100.00
16194;BME280;8204;53.582;10.080;2022-08-19T04:44:20;100076.50;;;21.35;100.00
16194;BME280;8204;53.582;10.080;2022-08-19T04:46:47;100053.06;;;21.37;100.00
16194;BME280;8204;53.582;10.080;2022-08-19T04:49:17;100076.31;;;21.41;100.00
16194;BME280;8204;53.582;10.080;2022-08-19T04:51:46;100080.94;;;21.46;100.00
16194;BME280;8204;53.582;10.080;2022-08-19T04:54:14;100104.75;;;21.52;100.00
16194;BME280;8204;53.582;10.080;2022-08-19T04:56:40;100086.59;;;21.49;100.00
16194;BME280;8204;53.582;10.080;2022-08-19T04:59:07;100091.91;;;21.49;100.00
16194;BME280;8204;53.582;10.080;2022-08-19T05:01:34;100100.97;;;21.48;100.00
16194;BME280;8204;53.582;10.080;2022-08-19T05:04:03;100096.09;;;21.45;100.00
16194;BME280;8204;53.582;10.080;2022-08-19T05:06:33;100083.53;;;21.41;100.00
16194;BME280;8204;53.582;10.080;2022-08-19T05:09:00;100072.88;;;21.41;100.00
16194;BME280;8204;53.582;10.080;2022-08-19T05:11:29;100084.56;;;21.40;100.00
16194;BME280;8204;53.582;10.080;2022-08-19T05:13:56;100091.75;;;21.39;100.00
16194;BME280;8204;53.582;10.080;2022-08-19T05:16:24;100081.84;;;21.35;100.00
16194;BME280;8204;53.582;10.080;2022-08-19T05:18:51;100077.31;;;21.35;100.00
16194;BME280;8204;53.582;10.080;2022-08-19T05:21:37;100074.78;;;21.29;100.00
16194;BME280;8204;53.582;10.080;2022-08-19T05:24:23;100069.47;;;21.29;100.00
16194;BME280;8204;53.582;10.080;2022-08-19T05:26:51;100074.56;;;21.30;100.00
16194;BME280;8204;53.582;10.080;2022-08-19T05:29:20;100095.97;;;21.35;100.00
16194;BME280;8204;53.582;10.080;2022-08-19T05:31:48;100076.72;;;21.33;100.00
16194;BME280;8204;53.582;10.080;2022-08-19T05:34:15;100067.69;;;21.34;100.00
16194;BME280;8204;53.582;10.080;2022-08-19T05:36:45;100070.94;;;21.36;100.00
16194;BME280;8204;53.582;10.080;2022-08-19T05:39:14;100035.69;;;21.34;100.00
16194;BME280;8204;53.582;10.080;2022-08-19T05:41:42;100026.09;;;21.33;100.00
16194;BME280;8204;53.582;10.080;2022-08-19T05:44:09;99993.56;;;21.31;100.00
16194;BME280;8204;53.582;10.080;2022-08-19T05:46:36;100000.47;;;21.32;100.00
16194;BME280;8204;53.582;10.080;2022-08-19T05:49:03;99997.59;;;21.34;100.00
16194;BME280;8204;53.582;10.080;2022-08-19T05:51:31;100011.72;;;21.34;100.00
16194;BME280;8204;53.582;10.080;2022-08-19T05:54:00;100025.03;;;21.34;100.00
16194;BME280;8204;53.582;10.080;2022-08-19T05:56:27;100018.91;;;21.34;100.00
16194;BME280;8204;53.582;10.080;2022-08-19T05:58:56;100007.94;;;21.30;100.00
16194;BME280;8204;53.582;10.080;2022-08-19T06:01:25;100015.69;;;21.32;100.00
16194;BME280;8204;53.582;10.080;2022-08-19T06:03:52;100013.81;;;21.32;100.00
16194;BME280;8204;53.582;10.080;2022-08-19T06:06:20;99966.91;;;21.31;100.00
16194;BME280;8204;53.582;10.080;2022-08-19T06:08:46;99956.47;;;21.30;100.00
16194;BME280;8204;53.582;10.080;2022-08-19T06:11:20;99955.41;;;21.31;100.00
16194;BME280;8204;53.582;10.080;2022-08-19T06:13:49;99942.34;;;21.29;100.00
16194;BME280;8204;53.582;10.080;2022-08-19T06:16:18;99964.25;;;21.31;100.00
16194;BME280;8204;53.582;10.080;2022-08-19T06:18:49;99981.81;;;21.32;100.00
16194;BME280;8204;53.582;10.080;2022-08-19T06:21:18;99984.25;;;21.34;100.00
16194;BME280;8204;53.582;10.080;2022-08-19T06:23:45;99998.38;;;21.34;100.00
16194;BME280;8204;53.582;10.080;2022-08-19T06:26:13;100004.53;;;21.35;100.00
16194;BME280;8204;53.582;10.080;2022-08-19T06:28:41;100004.75;;;21.33;100.00
16194;BME280;8204;53.582;10.080;2022-08-19T06:31:10;99993.72;;;21.25;100.00
16194;BME280;8204;53.582;10.080;2022-08-19T06:33:39;99969.97;;;21.24;100.00
16194;BME280;8204;53.582;10.080;2022-08-19T06:36:07;99951.34;;;21.24;100.00
16194;BME280;8204;53.582;10.080;2022-08-19T06:38:33;99892.13;;;21.22;100.00
16194;BME280;8204;53.582;10.080;2022-08-19T06:41:01;99876.72;;;21.24;100.00
16194;BME280;8204;53.582;10.080;2022-08-19T06:43:28;99893.00;;;21.27;100.00
16194;BME280;8204;53.582;10.080;2022-08-19T06:45:56;99882.09;;;21.28;100.00
16194;BME280;8204;53.582;10.080;2022-08-19T06:48:24;99874.47;;;21.37;100.00
16194;BME280;8204;53.582;10.080;2022-08-19T06:50:51;99903.25;;;21.35;100.00
16194;BME280;8204;53.582;10.080;2022-08-19T06:53:17;99927.78;;;21.37;100.00
16194;BME280;8204;53.582;10.080;2022-08-19T06:55:44;99936.59;;;21.37;100.00
16194;BME280;8204;53.582;10.080;2022-08-19T06:58:11;99983.59;;;21.43;100.00
16194;BME280;8204;53.582;10.080;2022-08-19T07:00:37;99993.19;;;21.44;100.00
16194;BME280;8204;53.582;10.080;2022-08-19T07:03:05;99992.69;;;21.47;100.00
16194;BME280;8204;53.582;10.080;2022-08-19T07:05:32;100008.69;;;21.47;100.00
16194;BME280;8204;53.582;10.080;2022-08-19T07:07:59;99968.06;;;21.40;100.00
16194;BME280;8204;53.582;10.080;2022-08-19T07:10:25;99967.28;;;21.40;100.00
16194;BME280;8204;53.582;10.080;2022-08-19T07:12:52;99961.94;;;21.40;100.00
16194;BME280;8204;53.582;10.080;2022-08-19T07:15:19;99959.59;;;21.43;100.00
16194;BME280;8204;53.582;10.080;2022-08-19T07:17:46;99976.91;;;21.41;100.00
16194;BME280;8204;53.582;10.080;2022-08-19T07:20:15;99972.66;;;21.45;100.00
16194;BME280;8204;53.582;10.080;2022-08-19T07:22:41;100002.31;;;21.48;100.00
16194;BME280;8204;53.582;10.080;2022-08-19T07:25:09;99991.06;;;21.46;100.00
16194;BME280;8204;53.582;10.080;2022-08-19T07:27:36;99959.09;;;21.46;100.00
16194;BME280;8204;53.582;10.080;2022-08-19T07:30:03;99981.56;;;21.50;100.00
16194;BME280;8204;53.582;10.080;2022-08-19T07:32:30;100002.41;;;21.53;100.00
16194;BME280;8204;53.582;10.080;2022-08-19T07:34:57;99998.59;;;21.49;100.00
16194;BME280;8204;53.582;10.080;2022-08-19T07:37:26;100036.81;;;21.55;100.00
16194;BME280;8204;53.582;10.080;2022-08-19T07:39:54;100041.34;;;21.54;100.00
16194;BME280;8204;53.582;10.080;2022-08-19T07:42:20;100061.44;;;21.62;100.00
16194;BME280;8204;53.582;10.080;2022-08-19T07:44:47;100065.50;;;21.64;100.00
16194;BME280;8204;53.582;10.080;2022-08-19T07:47:13;100025.97;;;21.61;100.00
16194;BME280;8204;53.582;10.080;2022-08-19T07:49:42;100032.63;;;21.59;100.00
16194;BME280;8204;53.582;10.080;2022-08-19T07:52:09;100040.88;;;21.57;100.00
16194;BME280;8204;53.582;10.080;2022-08-19T07:54:38;100008.31;;;21.55;100.00
16194;BME280;8204;53.582;10.080;2022-08-19T07:57:06;100004.91;;;21.60;100.00
16194;BME280;8204;53.582;10.080;2022-08-19T07:59:33;100014.22;;;21.57;100.00
16194;BME280;8204;53.582;10.080;2022-08-19T08:02:00;100023.06;;;21.63;100.00
16194;BME280;8204;53.582;10.080;2022-08-19T08:04:28;100037.28;;;21.68;100.00
16194;BME280;8204;53.582;10.080;2022-08-19T08:07:12;100047.94;;;21.68;100.00
16194;BME280;8204;53.582;10.080;2022-08-19T08:09:58;100042.63;;;21.68;100.00
16194;BME280;8204;53.582;10.080;2022-08-19T08:12:28;100041.56;;;21.69;100.00
16194;BME280;8204;53.582;10.080;2022-08-19T08:14:57;100074.38;;;21.70;100.00
16194;BME280;8204;53.582;10.080;2022-08-19T08:17:26;100057.16;;;21.77;100.00
16194;BME280;8204;53.582;10.080;2022-08-19T08:19:53;100080.00;;;21.73;100.00
16194;BME280;8204;53.582;10.080;2022-08-19T08:22:22;100071.53;;;21.76;100.00
16194;BME280;8204;53.582;10.080;2022-08-19T08:25:10;100056.00;;;21.73;100.00
16194;BME280;8204;53.582;10.080;2022-08-19T08:27:37;100042.72;;;21.78;100.00
16194;BME280;8204;53.582;10.080;2022-08-19T08:30:06;100072.84;;;21.74;100.00
16194;BME280;8204;53.582;10.080;2022-08-19T08:32:34;100087.53;;;21.76;100.00
16194;BME280;8204;53.582;10.080;2022-08-19T08:35:01;100098.53;;;21.80;100.00
16194;BME280;8204;53.582;10.080;2022-08-19T08:37:28;100117.41;;;21.78;100.00
16194;BME280;8204;53.582;10.080;2022-08-19T08:39:55;100103.84;;;21.80;100.00
16194;BME280;8204;53.582;10.080;2022-08-19T08:42:28;100114.59;;;21.85;100.00
16194;BME280;8204;53.582;10.080;2022-08-19T08:44:58;100109.81;;;21.87;100.00
16194;BME280;8204;53.582;10.080;2022-08-19T08:47:29;100106.06;;;21.88;100.00
16194;BME280;8204;53.582;10.080;2022-08-19T08:50:00;100122.91;;;21.88;100.00
16194;BME280;8204;53.582;10.080;2022-08-19T08:52:30;100112.25;;;21.88;100.00
16194;BME280;8204;53.582;10.080;2022-08-19T08:55:05;100119.19;;;21.89;100.00
16194;BME280;8204;53.582;10.080;2022-08-19T08:57:36;100144.25;;;21.88;100.00
16194;BME280;8204;53.582;10.080;2022-08-19T09:00:08;100136.25;;;21.88;100.00
16194;BME280;8204;53.582;10.080;2022-08-19T09:02:37;100126.94;;;21.91;100.00
16194;BME280;8204;53.582;10.080;2022-08-19T09:05:05;100136.56;;;21.92;100.00
16194;BME280;8204;53.582;10.080;2022-08-19T09:07:39;100143.84;;;21.96;100.00
16194;BME280;8204;53.582;10.080;2022-08-19T09:10:16;100179.00;;;21.93;100.00
16194;BME280;8204;53.582;10.080;2022-08-19T09:12:59;100157.28;;;21.85;100.00
16194;BME280;8204;53.582;10.080;2022-08-19T09:15:36;100117.41;;;21.78;100.00
16194;BME280;8204;53.582;10.080;2022-08-19T09:18:05;100095.28;;;21.78;100.00
16194;BME280;8204;53.582;10.080;2022-08-19T09:20:32;100079.28;;;21.78;100.00
16194;BME280;8204;53.582;10.080;2022-08-19T09:22:58;100056.91;;;21.79;100.00
16194;BME280;8204;53.582;10.080;2022-08-19T09:25:25;100067.81;;;21.77;100.00
16194;BME280;8204;53.582;10.080;2022-08-19T09:27:54;100043.28;;;21.80;100.00
16194;BME280;8204;53.582;10.080;2022-08-19T09:30:24;100046.78;;;21.81;100.00
16194;BME280;8204;53.582;10.080;2022-08-19T09:32:52;100036.91;;;21.81;100.00
16194;BME280;8204;53.582;10.080;2022-08-19T09:35:19;100046.84;;;21.86;100.00
16194;BME280;8204;53.582;10.080;2022-08-19T09:37:47;100052.41;;;21.84;100.00
16194;BME280;8204;53.582;10.080;2022-08-19T09:40:15;100038.84;;;21.86;100.00
16194;BME280;8204;53.582;10.080;2022-08-19T09:42:42;100074.56;;;21.85;100.00
16194;BME280;8204;53.582;10.080;2022-08-19T09:45:13;100076.97;;;21.86;100.00
16194;BME280;8204;53.582;10.080;2022-08-19T09:47:40;100081.53;;;21.86;100.00
16194;BME280;8204;53.582;10.080;2022-08-19T09:50:09;100060.66;;;21.83;100.00
16194;BME280;8204;53.582;10.080;2022-08-19T09:52:37;100041.13;;;21.77;100.00
16194;BME280;8204;53.582;10.080;2022-08-19T09:55:04;100033.44;;;21.81;100.00
16194;BME280;8204;53.582;10.080;2022-08-19T09:57:31;100042.72;;;21.78;100.00
16194;BME280;8204;53.582;10.080;2022-08-19T09:59:58;100050.81;;;21.83;100.00
16194;BME280;8204;53.582;10.080;2022-08-19T10:02:26;100045.78;;;21.87;100.00
16194;BME280;8204;53.582;10.080;2022-08-19T10:04:52;100038.59;;;21.87;100.00
16194;BME280;8204;53.582;10.080;2022-08-19T10:07:36;100086.91;;;21.91;100.00
16194;BME280;8204;53.582;10.080;2022-08-19T10:10:04;100120.88;;;21.95;100.00
16194;BME280;8204;53.582;10.080;2022-08-19T10:12:31;100122.66;;;21.90;100.00
16194;BME280;8204;53.582;10.080;2022-08-19T10:14:58;100132.59;;;21.94;100.00
16194;BME280;8204;53.582;10.080;2022-08-19T10:17:27;100113.03;;;21.89;100.00
16194;BME280;8204;53.582;10.080;2022-08-19T10:19:54;100110.38;;;21.89;100.00
16194;BME280;8204;53.582;10.080;2022-08-19T10:22:20;100117.56;;;21.88;100.00
16194;BME280;8204;53.582;10.080;2022-08-19T10:24:47;100097.59;;;21.91;100.00
16194;BME280;8204;53.582;10.080;2022-08-19T10:27:14;100095.50;;;21.93;100.00
16194;BME280;8204;53.582;10.080;2022-08-19T10:29:41;100080.34;;;21.98;100.00
16194;BME280;8204;53.582;10.080;2022-08-19T10:32:08;100079.28;;;21.99;100.00
16194;BME280;8204;53.582;10.080;2022-08-19T10:34:38;100085.81;;;22.08;100.00
16194;BME280;8204;53.582;10.080;2022-08-19T10:37:05;100103.50;;;22.14;100.00
16194;BME280;8204;53.582;10.080;2022-08-19T10:39:33;100106.97;;;22.14;100.00
16194;BME280;8204;53.582;10.080;2022-08-19T10:42:04;100126.53;;;22.20;100.00
16194;BME280;8204;53.582;10.080;2022-08-19T10:44:31;100153.06;;;22.26;100.00
16194;BME280;8204;53.582;10.080;2022-08-19T10:46:58;100162.91;;;22.26;100.00
16194;BME280;8204;53.582;10.080;2022-08-19T10:49:25;100164.53;;;22.27;100.00
16194;BME280;8204;53.582;10.080;2022-08-19T10:51:53;100175.88;;;22.34;100.00
16194;BME280;8204;53.582;10.080;2022-08-19T10:54:37;100197.22;;;22.34;100.00
16194;BME280;8204;53.582;10.080;2022-08-19T10:57:21;100163.00;;;22.31;100.00
16194;BME280;8204;53.582;10.080;2022-08-19T10:59:56;100167.03;;;22.33;100.00
16194;BME280;8204;53.582;10.080;2022-08-19T11:02:23;100171.09;;;22.36;100.00
16194;BME280;8204;53.582;10.080;2022-08-19T11:04:49;100168.97;;;22.38;100.00
16194;BME280;8204;53.582;10.080;2022-08-19T11:07:18;100202.69;;;22.44;100.00
16194;BME280;8204;53.582;10.080;2022-08-19T11:09:44;100197.34;;;22.44;100.00
16194;BME280;8204;53.582;10.080;2022-08-19T11:12:11;100203.25;;;22.46;100.00
16194;BME280;8204;53.582;10.080;2022-08-19T11:14:41;100206.44;;;22.43;100.00
16194;BME280;8204;53.582;10.080;2022-08-19T11:17:07;100216.59;;;22.46;100.00
16194;BME280;8204;53.582;10.080;2022-08-19T11:19:34;100214.66;;;22.41;100.00
16194;BME280;8204;53.582;10.080;2022-08-19T11:22:01;100207.22;;;22.43;100.00
16194;BME280;8204;53.582;10.080;2022-08-19T11:24:30;100209.91;;;22.43;100.00
16194;BME280;8204;53.582;10.080;2022-08-19T11:27:01;100228.91;;;22.47;100.00
16194;BME280;8204;53.582;10.080;2022-08-19T11:29:30;100241.94;;;22.43;100.00
16194;BME280;8204;53.582;10.080;2022-08-19T11:31:57;100229.38;;;22.44;100.00
16194;BME280;8204;53.582;10.080;2022-08-19T11:34:25;100227.28;;;22.46;100.00
16194;BME280;8204;53.582;10.080;2022-08-19T11:36:52;100189.91;;;22.46;100.00
16194;BME280;8204;53.582;10.080;2022-08-19T11:39:21;100153.09;;;22.48;100.00
16194;BME280;8204;53.582;10.080;2022-08-19T11:41:49;100196.66;;;22.53;100.00
16194;BME280;8204;53.582;10.080;2022-08-19T11:44:16;100205.56;;;22.59;100.00
16194;BME280;8204;53.582;10.080;2022-08-19T11:46:43;100200.84;;;22.66;100.00
16194;BME280;8204;53.582;10.080;2022-08-19T11:49:15;100229.72;;;22.69;100.00
16194;BME280;8204;53.582;10.080;2022-08-19T11:51:44;100260.22;;;22.73;100.00
16194;BME280;8204;53.582;10.080;2022-08-19T11:54:12;100241.56;;;22.77;100.00
16194;BME280;8204;53.582;10.080;2022-08-19T11:56:40;100276.38;;;22.82;100.00
16194;BME280;8204;53.582;10.080;2022-08-19T11:59:08;100289.31;;;22.90;100.00
16194;BME280;8204;53.582;10.080;2022-08-19T12:01:36;100293.91;;;22.95;100.00
16194;BME280;8204;53.582;10.080;2022-08-19T12:04:03;100295.13;;;23.04;100.00
16194;BME280;8204;53.582;10.080;2022-08-19T12:06:32;100307.22;;;23.11;100.00
16194;BME280;8204;53.582;10.080;2022-08-19T12:09:03;100355.19;;;23.18;100.00
16194;BME280;8204;53.582;10.080;2022-08-19T12:11:30;100381.72;;;23.24;100.00
16194;BME280;8204;53.582;10.080;2022-08-19T12:13:56;100389.78;;;23.29;100.00
16194;BME280;8204;53.582;10.080;2022-08-19T12:16:27;100384.00;;;23.37;100.00
16194;BME280;8204;53.582;10.080;2022-08-19T12:18:55;100400.63;;;23.39;100.00
16194;BME280;8204;53.582;10.080;2022-08-19T12:21:25;100409.97;;;23.37;100.00
16194;BME280;8204;53.582;10.080;2022-08-19T12:23:53;100398.50;;;23.41;100.00
16194;BME280;8204;53.582;10.080;2022-08-19T12:26:21;100424.25;;;23.47;100.00
16194;BME280;8204;53.582;10.080;2022-08-19T12:28:48;100427.75;;;23.48;100.00
16194;BME280;8204;53.582;10.080;2022-08-19T12:31:15;100426.75;;;23.53;100.00
16194;BME280;8204;53.582;10.080;2022-08-19T12:33:43;100457.28;;;23.57;100.00
16194;BME280;8204;53.582;10.080;2022-08-19T12:36:13;100425.47;;;23.61;100.00
16194;BME280;8204;53.582;10.080;2022-08-19T12:38:41;100434.88;;;23.63;100.00
16194;BME280;8204;53.582;10.080;2022-08-19T12:41:10;100426.91;;;23.68;100.00
16194;BME280;8204;53.582;10.080;2022-08-19T12:43:37;100413.13;;;23.76;100.00
16194;BME280;8204;53.582;10.080;2022-08-19T12:46:05;100441.59;;;23.87;100.00